Pelham, New York
Current Conditions -  °F | °C
As of 1:51 PM on Thursday 30 Oct 2014 (Local Time) from KLGA Reporting Station
Few Clouds Few Clouds  
Wind Chill: 14°   Ceiling: Unl
Heat Index: 14°   Visibility: 10mi
Dew Point:   Wind: 3mph
Humidity: 45%   Direction: NA
Pressure: 29.97"   Gusts: NA
Location:  40.91°N, 73.81°W
Report Text: KLGA 301751Z VRB03KT 10SM FEW046 14/02 A2997 RMK AO2 SLP148 T01390022 10144 20100 58009
Loading
Personal Weather Stations






























Interactive Weather Map
Tropical Storm Tracking
New forecast layout! Learn more

10-Day Weather Forecast

Advertisements
Track Severe Weather on mobile